createdAt,value
2018-03-26T00:00:37.376Z,946.61
2018-03-26T00:01:37.359Z,946.62
2018-03-26T00:02:37.343Z,946.65
2018-03-26T00:03:37.329Z,946.65
2018-03-26T00:04:37.313Z,946.67
2018-03-26T00:05:37.295Z,946.63
2018-03-26T00:06:37.279Z,946.62
2018-03-26T00:07:37.265Z,946.57
2018-03-26T00:08:37.250Z,946.57
2018-03-26T00:09:37.233Z,946.6
2018-03-26T00:10:37.217Z,946.57
2018-03-26T00:11:37.202Z,946.55
2018-03-26T00:12:37.185Z,946.52
2018-03-26T00:13:37.168Z,946.52
2018-03-26T00:14:37.153Z,946.55
2018-03-26T00:15:37.137Z,946.54
2018-03-26T00:16:37.121Z,946.53
2018-03-26T00:17:37.106Z,946.55
2018-03-26T00:18:37.088Z,946.58
2018-03-26T00:19:37.075Z,946.57
2018-03-26T00:20:37.105Z,946.58
2018-03-26T00:21:37.041Z,946.6
2018-03-26T00:22:37.024Z,946.55
2018-03-26T00:23:37.010Z,946.54
2018-03-26T00:24:36.993Z,946.52
2018-03-26T00:25:36.981Z,946.5
2018-03-26T00:26:36.968Z,946.55
2018-03-26T00:27:36.947Z,946.51
2018-03-26T00:28:36.929Z,946.49
2018-03-26T00:29:36.915Z,946.51
2018-03-26T00:30:36.898Z,946.5
2018-03-26T00:31:36.883Z,946.54
2018-03-26T00:32:36.867Z,946.52
2018-03-26T00:33:36.851Z,946.51
2018-03-26T00:34:36.836Z,946.55
2018-03-26T00:35:36.821Z,946.54
2018-03-26T00:36:36.802Z,946.51
2018-03-26T00:37:36.786Z,946.54
2018-03-26T00:38:36.772Z,946.56
2018-03-26T00:39:36.756Z,946.55
2018-03-26T00:40:36.739Z,946.59
2018-03-26T00:41:36.724Z,946.56
2018-03-26T00:42:36.708Z,946.6
2018-03-26T00:43:36.793Z,946.6
2018-03-26T00:44:36.676Z,946.6
2018-03-26T00:45:36.660Z,946.62
2018-03-26T00:46:36.644Z,946.62
2018-03-26T00:47:36.628Z,946.63
2018-03-26T00:48:36.611Z,946.62
2018-03-26T00:49:36.597Z,946.63
2018-03-26T00:50:36.581Z,946.67
2018-03-26T00:51:36.564Z,946.72
2018-03-26T00:52:36.548Z,946.67
2018-03-26T00:53:36.535Z,946.66
2018-03-26T00:54:36.516Z,946.68
2018-03-26T00:55:36.500Z,946.65
2018-03-26T00:56:36.484Z,946.66
2018-03-26T00:57:36.469Z,946.66
2018-03-26T00:58:36.453Z,946.66
2018-03-26T00:59:36.437Z,946.65
2018-03-26T01:00:36.422Z,946.65
2018-03-26T01:01:36.404Z,946.61
2018-03-26T01:02:36.387Z,946.6
2018-03-26T01:03:36.374Z,946.65
2018-03-26T01:04:36.358Z,946.57
2018-03-26T01:05:36.341Z,946.6
2018-03-26T01:06:36.329Z,946.58
2018-03-26T01:07:36.309Z,946.57
2018-03-26T01:08:36.292Z,946.57
2018-03-26T01:09:36.276Z,946.48
2018-03-26T01:10:36.261Z,946.49
2018-03-26T01:11:36.246Z,946.48
2018-03-26T01:12:36.231Z,946.46
2018-03-26T01:13:36.213Z,946.47
2018-03-26T01:14:36.197Z,946.48
2018-03-26T01:15:36.181Z,946.48
2018-03-26T01:16:36.166Z,946.49
2018-03-26T01:17:36.152Z,946.5
2018-03-26T01:18:36.133Z,946.55
2018-03-26T01:19:36.117Z,946.55
2018-03-26T01:20:36.105Z,946.57
2018-03-26T01:21:36.087Z,946.48
2018-03-26T01:22:36.072Z,946.53
2018-03-26T01:23:36.055Z,946.56
2018-03-26T01:24:36.048Z,946.55
2018-03-26T01:25:36.025Z,946.58
2018-03-26T01:26:36.007Z,946.55
2018-03-26T01:27:35.992Z,946.58
2018-03-26T01:28:35.976Z,946.66
2018-03-26T01:29:35.960Z,946.6
2018-03-26T01:30:35.943Z,946.59
2018-03-26T01:31:35.929Z,946.59
2018-03-26T01:32:35.912Z,946.58
2018-03-26T01:33:35.897Z,946.51
2018-03-26T01:34:35.880Z,946.58
2018-03-26T01:35:35.865Z,946.57
2018-03-26T01:36:35.847Z,946.57
2018-03-26T01:37:35.837Z,946.59
2018-03-26T01:38:35.817Z,946.63
2018-03-26T01:39:35.802Z,946.63
2018-03-26T01:40:35.788Z,946.66
2018-03-26T01:41:35.769Z,946.67
2018-03-26T01:42:35.753Z,946.61
2018-03-26T01:43:35.737Z,946.67
2018-03-26T01:44:35.722Z,946.72
2018-03-26T01:45:35.706Z,946.73
2018-03-26T01:46:35.693Z,946.76
2018-03-26T01:47:35.675Z,946.76
2018-03-26T01:48:35.657Z,946.78
2018-03-26T01:49:35.640Z,946.79
2018-03-26T01:50:35.626Z,946.8
2018-03-26T01:51:35.608Z,946.78
2018-03-26T01:52:35.593Z,946.8
2018-03-26T01:53:35.576Z,946.79
2018-03-26T01:54:35.562Z,946.8
2018-03-26T01:55:35.546Z,946.81
2018-03-26T01:56:35.532Z,946.84
2018-03-26T01:57:35.514Z,946.82
2018-03-26T01:58:35.500Z,946.86
2018-03-26T01:59:35.481Z,946.83
2018-03-26T02:00:35.466Z,946.85
2018-03-26T02:01:35.451Z,946.88
2018-03-26T02:02:35.440Z,946.89
2018-03-26T02:03:35.417Z,946.86
2018-03-26T02:04:35.404Z,946.84
2018-03-26T02:05:35.388Z,946.84
2018-03-26T02:06:35.370Z,946.88
2018-03-26T02:07:35.355Z,946.87
2018-03-26T02:08:35.337Z,946.91
2018-03-26T02:09:35.326Z,946.9
2018-03-26T02:10:35.305Z,946.88
2018-03-26T02:11:35.289Z,946.89
2018-03-26T02:12:35.275Z,946.88
2018-03-26T02:13:35.260Z,946.92
2018-03-26T02:14:35.242Z,946.87
2018-03-26T02:15:35.228Z,946.9
2018-03-26T02:16:35.212Z,946.87
2018-03-26T02:17:35.197Z,946.91
2018-03-26T02:18:35.178Z,946.91
2018-03-26T02:19:35.164Z,946.9
2018-03-26T02:20:35.147Z,946.87
2018-03-26T02:21:35.132Z,946.9
2018-03-26T02:22:35.116Z,946.88
2018-03-26T02:23:35.100Z,946.86
2018-03-26T02:24:35.085Z,946.91
2018-03-26T02:25:35.068Z,946.88
2018-03-26T02:26:35.086Z,946.9
2018-03-26T02:27:35.038Z,946.92
2018-03-26T02:28:35.020Z,946.91
2018-03-26T02:29:35.004Z,946.91
2018-03-26T02:30:34.989Z,946.91
2018-03-26T02:31:34.973Z,946.9
2018-03-26T02:32:34.957Z,946.94
2018-03-26T02:33:34.938Z,946.94
2018-03-26T02:34:34.924Z,946.93
2018-03-26T02:35:34.909Z,946.94
2018-03-26T02:36:34.893Z,946.97
2018-03-26T02:37:34.877Z,946.93
2018-03-26T02:38:34.861Z,946.95
2018-03-26T02:39:34.844Z,946.93
2018-03-26T02:40:34.828Z,946.94
2018-03-26T02:41:34.814Z,946.9
2018-03-26T02:42:34.796Z,946.88
2018-03-26T02:43:34.778Z,946.88
2018-03-26T02:44:34.764Z,946.88
2018-03-26T02:45:34.749Z,946.89
2018-03-26T02:46:34.732Z,946.9
2018-03-26T02:47:34.717Z,946.93
2018-03-26T02:48:34.700Z,946.91
2018-03-26T02:49:34.684Z,946.95
2018-03-26T02:50:34.670Z,946.94
2018-03-26T02:51:34.654Z,946.91
2018-03-26T02:52:34.640Z,946.95
2018-03-26T02:53:34.623Z,946.96
2018-03-26T02:54:34.606Z,946.97
2018-03-26T02:55:34.591Z,946.97
2018-03-26T02:56:34.574Z,947.01
2018-03-26T02:57:34.561Z,946.99
2018-03-26T02:58:34.543Z,946.97
2018-03-26T02:59:34.528Z,946.96
2018-03-26T03:00:34.512Z,946.99
2018-03-26T03:01:34.507Z,947.03
2018-03-26T03:02:34.482Z,946.99
2018-03-26T03:03:34.465Z,946.97
2018-03-26T03:04:34.449Z,947.03
2018-03-26T03:05:34.434Z,947
2018-03-26T03:06:34.417Z,947.02
2018-03-26T03:07:34.399Z,946.97
2018-03-26T03:08:34.384Z,947.02
2018-03-26T03:09:34.368Z,947.01
2018-03-26T03:10:34.401Z,947
2018-03-26T03:11:34.338Z,947
2018-03-26T03:12:34.322Z,947
2018-03-26T03:13:34.305Z,947.04
2018-03-26T03:14:34.288Z,947.01
2018-03-26T03:15:34.273Z,947.06
2018-03-26T03:16:34.256Z,947.11
2018-03-26T03:17:34.244Z,947.1
2018-03-26T03:18:34.227Z,947.1
2018-03-26T03:19:34.212Z,947.1
2018-03-26T03:20:34.194Z,947.12
2018-03-26T03:21:34.177Z,947.17
2018-03-26T03:22:34.182Z,947.17
2018-03-26T03:23:34.146Z,947.19
2018-03-26T03:24:34.131Z,947.17
2018-03-26T03:25:34.116Z,947.18
2018-03-26T03:26:34.114Z,947.16
2018-03-26T03:27:34.082Z,947.18
2018-03-26T03:28:34.067Z,947.2
2018-03-26T03:29:34.051Z,947.2
2018-03-26T03:30:34.036Z,947.22
2018-03-26T03:31:34.025Z,947.19
2018-03-26T03:32:34.003Z,947.18
2018-03-26T03:33:33.987Z,947.19
2018-03-26T03:34:33.971Z,947.19
2018-03-26T03:35:33.956Z,947.22
2018-03-26T03:36:33.940Z,947.26
2018-03-26T03:37:33.924Z,947.27
2018-03-26T03:38:33.916Z,947.28
2018-03-26T03:39:33.892Z,947.29
2018-03-26T03:40:33.875Z,947.23
2018-03-26T03:41:33.858Z,947.24
2018-03-26T03:42:33.843Z,947.23
2018-03-26T03:43:33.827Z,947.26
2018-03-26T03:44:33.811Z,947.28
2018-03-26T03:45:33.796Z,947.25
2018-03-26T03:46:33.780Z,947.25
2018-03-26T03:47:33.762Z,947.28
2018-03-26T03:48:33.749Z,947.28
2018-03-26T03:49:33.731Z,947.33
2018-03-26T03:50:33.714Z,947.3
2018-03-26T03:51:33.701Z,947.35
2018-03-26T03:52:33.684Z,947.31
2018-03-26T03:53:33.667Z,947.31
2018-03-26T03:54:33.652Z,947.31
2018-03-26T03:55:33.636Z,947.3
2018-03-26T03:56:33.620Z,947.28
2018-03-26T03:57:33.604Z,947.33
2018-03-26T03:58:33.587Z,947.27
2018-03-26T03:59:33.571Z,947.29
2018-03-26T04:00:33.553Z,947.31
2018-03-26T04:01:33.539Z,947.29
2018-03-26T04:02:33.522Z,947.26
2018-03-26T04:03:33.508Z,947.26
2018-03-26T04:04:33.500Z,947.28
2018-03-26T04:05:33.475Z,947.28
2018-03-26T04:06:33.460Z,947.28
2018-03-26T04:07:33.442Z,947.28
2018-03-26T04:08:33.426Z,947.27
2018-03-26T04:09:33.410Z,947.27
2018-03-26T04:10:33.395Z,947.31
2018-03-26T04:11:33.378Z,947.31
2018-03-26T04:12:33.361Z,947.33
2018-03-26T04:13:33.346Z,947.36
2018-03-26T04:14:33.331Z,947.35
2018-03-26T04:15:33.315Z,947.39
2018-03-26T04:16:33.298Z,947.34
2018-03-26T04:17:33.282Z,947.39
2018-03-26T04:18:33.266Z,947.39
2018-03-26T04:19:33.252Z,947.41
2018-03-26T04:20:33.234Z,947.41
2018-03-26T04:21:33.218Z,947.42
2018-03-26T04:22:33.201Z,947.42
2018-03-26T04:23:33.186Z,947.43
2018-03-26T04:24:33.171Z,947.46
2018-03-26T04:25:33.158Z,947.47
2018-03-26T04:26:33.138Z,947.44
2018-03-26T04:27:33.124Z,947.47
2018-03-26T04:28:33.106Z,947.51
2018-03-26T04:29:33.089Z,947.48
2018-03-26T04:30:33.073Z,947.52
2018-03-26T04:31:33.058Z,947.5
2018-03-26T04:32:33.052Z,947.49
2018-03-26T04:33:33.027Z,947.52
2018-03-26T04:34:33.011Z,947.47
2018-03-26T04:35:32.996Z,947.54
2018-03-26T04:36:32.976Z,947.52
2018-03-26T04:37:32.962Z,947.55
2018-03-26T04:38:32.947Z,947.51
2018-03-26T04:39:32.930Z,947.49
2018-03-26T04:40:32.913Z,947.51
2018-03-26T04:41:32.897Z,947.53
2018-03-26T04:42:32.882Z,947.55
2018-03-26T04:43:32.867Z,947.58
2018-03-26T04:44:32.850Z,947.54
2018-03-26T04:45:32.835Z,947.58
2018-03-26T04:46:32.818Z,947.6
2018-03-26T04:47:32.801Z,947.55
2018-03-26T04:48:32.784Z,947.55
2018-03-26T04:49:32.770Z,947.5
2018-03-26T04:50:32.755Z,947.55
2018-03-26T04:51:32.737Z,947.57
2018-03-26T04:52:32.728Z,947.51
2018-03-26T04:53:32.706Z,947.55
2018-03-26T04:54:32.689Z,947.53
2018-03-26T04:55:32.674Z,947.53
2018-03-26T04:56:32.657Z,947.53
2018-03-26T04:57:32.642Z,947.47
2018-03-26T04:58:32.624Z,947.52
2018-03-26T04:59:32.610Z,947.51
2018-03-26T05:00:32.592Z,947.54
2018-03-26T05:01:32.576Z,947.54
2018-03-26T05:02:32.560Z,947.49
2018-03-26T05:03:32.545Z,947.45
2018-03-26T05:04:32.527Z,947.5
2018-03-26T05:05:32.513Z,947.54
2018-03-26T05:06:32.497Z,947.55
2018-03-26T05:07:32.480Z,947.57
2018-03-26T05:08:32.464Z,947.57
2018-03-26T05:09:32.447Z,947.61
2018-03-26T05:10:32.433Z,947.64
2018-03-26T05:11:32.416Z,947.75
2018-03-26T05:12:32.401Z,947.76
2018-03-26T05:13:32.385Z,947.79
2018-03-26T05:14:32.369Z,947.81
2018-03-26T05:15:32.352Z,947.79
2018-03-26T05:16:32.338Z,947.84
2018-03-26T05:17:32.320Z,947.85
2018-03-26T05:18:32.303Z,947.87
2018-03-26T05:19:32.289Z,947.86
2018-03-26T05:20:32.271Z,947.86
2018-03-26T05:21:32.258Z,947.82
2018-03-26T05:22:32.240Z,947.83
2018-03-26T05:23:32.223Z,947.76
2018-03-26T05:24:32.206Z,947.77
2018-03-26T05:25:32.191Z,947.76
2018-03-26T05:26:32.176Z,947.81
2018-03-26T05:27:32.159Z,947.81
2018-03-26T05:28:32.164Z,947.81
2018-03-26T05:29:32.127Z,947.81
2018-03-26T05:30:32.109Z,947.82
2018-03-26T05:31:32.093Z,947.85
2018-03-26T05:32:32.077Z,947.86
2018-03-26T05:33:32.063Z,947.83
2018-03-26T05:34:32.046Z,947.85
2018-03-26T05:35:32.028Z,947.87
2018-03-26T05:36:32.013Z,947.9
2018-03-26T05:37:31.998Z,947.95
2018-03-26T05:38:31.981Z,947.91
2018-03-26T05:39:31.965Z,947.91
2018-03-26T05:40:31.965Z,947.9
2018-03-26T05:41:31.933Z,947.94
2018-03-26T05:42:31.916Z,947.96
2018-03-26T05:43:31.900Z,947.92
2018-03-26T05:44:31.885Z,947.89
2018-03-26T05:45:31.870Z,947.89
2018-03-26T05:46:31.854Z,947.95
2018-03-26T05:47:31.835Z,947.88
2018-03-26T05:48:31.822Z,947.91
2018-03-26T05:49:31.811Z,947.96
2018-03-26T05:50:31.789Z,947.96
2018-03-26T05:51:31.772Z,947.96
2018-03-26T05:52:31.759Z,947.96
2018-03-26T05:53:31.739Z,947.97
2018-03-26T05:54:31.725Z,947.98
2018-03-26T05:55:31.708Z,947.98
2018-03-26T05:56:31.694Z,947.92
2018-03-26T05:57:31.676Z,947.95
2018-03-26T05:58:31.660Z,947.93
2018-03-26T05:59:31.645Z,947.94
2018-03-26T06:00:31.629Z,947.99
2018-03-26T06:01:31.613Z,948
2018-03-26T06:02:31.596Z,947.94
2018-03-26T06:03:31.581Z,948.01
2018-03-26T06:04:31.565Z,948.02
2018-03-26T06:05:31.552Z,948.01
2018-03-26T06:06:31.534Z,948.05
2018-03-26T06:07:31.519Z,948.06
2018-03-26T06:08:31.501Z,948.03
2018-03-26T06:09:31.485Z,948.06
2018-03-26T06:10:31.470Z,948.06
2018-03-26T06:11:31.454Z,948.04
2018-03-26T06:12:31.438Z,947.99
2018-03-26T06:13:31.424Z,948
2018-03-26T06:14:31.407Z,948
2018-03-26T06:15:31.409Z,948
2018-03-26T06:16:31.375Z,948.03
2018-03-26T06:17:31.363Z,948.04
2018-03-26T06:18:31.343Z,948.01
2018-03-26T06:19:31.327Z,947.99
2018-03-26T06:20:31.312Z,948.01
2018-03-26T06:21:31.297Z,947.99
2018-03-26T06:22:31.280Z,948.02
2018-03-26T06:23:31.273Z,948.01
2018-03-26T06:24:31.252Z,948.03
2018-03-26T06:25:31.234Z,948.06
2018-03-26T06:26:31.217Z,948.04
2018-03-26T06:27:31.201Z,948.1
2018-03-26T06:28:31.187Z,948.08
2018-03-26T06:29:31.171Z,948.09
2018-03-26T06:30:31.221Z,948.11
2018-03-26T06:31:31.146Z,948.11
2018-03-26T06:32:31.124Z,948.16
2018-03-26T06:33:31.108Z,948.17
2018-03-26T06:34:31.091Z,948.17
2018-03-26T06:35:31.076Z,948.19
2018-03-26T06:36:31.062Z,948.23
2018-03-26T06:37:31.047Z,948.23
2018-03-26T06:38:31.031Z,948.25
2018-03-26T06:39:31.017Z,948.24
2018-03-26T06:40:30.998Z,948.26
2018-03-26T06:41:30.984Z,948.28
2018-03-26T06:42:30.971Z,948.27
2018-03-26T06:43:30.957Z,948.31
2018-03-26T06:44:30.937Z,948.26
2018-03-26T06:45:30.922Z,948.27
2018-03-26T06:46:30.908Z,948.27
2018-03-26T06:47:30.985Z,948.29
2018-03-26T06:48:30.879Z,948.24
2018-03-26T06:49:30.866Z,948.26
2018-03-26T06:50:30.847Z,948.31
2018-03-26T06:51:30.830Z,948.33
2018-03-26T06:52:30.816Z,948.36
2018-03-26T06:53:30.800Z,948.37
2018-03-26T06:54:30.786Z,948.4
2018-03-26T06:55:30.769Z,948.42
2018-03-26T06:56:30.755Z,948.42
2018-03-26T06:57:30.741Z,948.44
2018-03-26T06:58:30.731Z,948.47
2018-03-26T06:59:30.708Z,948.46
2018-03-26T07:00:30.698Z,948.47
2018-03-26T07:01:30.680Z,948.49
2018-03-26T07:02:30.665Z,948.47
2018-03-26T07:03:30.649Z,948.53
2018-03-26T07:04:30.634Z,948.48
2018-03-26T07:05:30.619Z,948.51
2018-03-26T07:06:30.604Z,948.55
2018-03-26T07:07:30.588Z,948.55
2018-03-26T07:08:30.574Z,948.55
2018-03-26T07:09:30.558Z,948.57
2018-03-26T07:10:30.547Z,948.56
2018-03-26T07:11:30.534Z,948.61
2018-03-26T07:12:30.661Z,948.63
2018-03-26T07:13:30.501Z,948.63
2018-03-26T07:14:30.483Z,948.67
2018-03-26T07:15:30.471Z,948.71
2018-03-26T07:16:30.459Z,948.68
2018-03-26T07:17:30.440Z,948.69
2018-03-26T07:18:30.425Z,948.7
2018-03-26T07:19:30.412Z,948.66
2018-03-26T07:20:30.396Z,948.64
2018-03-26T07:21:30.381Z,948.66
2018-03-26T07:22:30.366Z,948.62
2018-03-26T07:23:30.352Z,948.61
2018-03-26T07:24:30.340Z,948.59
2018-03-26T07:25:30.318Z,948.56
2018-03-26T07:26:30.305Z,948.55
2018-03-26T07:27:30.292Z,948.56
2018-03-26T07:28:30.278Z,948.58
2018-03-26T07:29:30.261Z,948.61
2018-03-26T07:30:30.247Z,948.59
2018-03-26T07:31:30.231Z,948.62
2018-03-26T07:32:30.216Z,948.66
2018-03-26T07:33:30.203Z,948.66
2018-03-26T07:34:30.189Z,948.66
2018-03-26T07:35:30.177Z,948.62
2018-03-26T07:36:30.161Z,948.65
2018-03-26T07:37:30.146Z,948.67
2018-03-26T07:38:30.132Z,948.72
2018-03-26T07:39:30.117Z,948.79
2018-03-26T07:40:30.101Z,948.73
2018-03-26T07:41:30.088Z,948.71
2018-03-26T07:42:30.079Z,948.71
2018-03-26T07:43:30.061Z,948.72
2018-03-26T07:44:30.045Z,948.77
2018-03-26T07:45:30.032Z,948.82
2018-03-26T07:46:30.022Z,948.82
2018-03-26T07:47:30.004Z,948.86
2018-03-26T07:48:29.987Z,948.85
2018-03-26T07:49:29.975Z,948.84
2018-03-26T07:50:29.961Z,948.78
2018-03-26T07:51:29.947Z,948.8
2018-03-26T07:52:29.933Z,948.84
2018-03-26T07:53:29.920Z,948.87
2018-03-26T07:54:29.905Z,948.9
2018-03-26T07:55:29.893Z,948.85
2018-03-26T07:56:29.877Z,948.85
2018-03-26T07:57:29.865Z,948.9
2018-03-26T07:58:29.867Z,948.84
2018-03-26T07:59:29.837Z,948.86
2018-03-26T08:00:29.822Z,948.85
2018-03-26T08:01:29.818Z,948.89
2018-03-26T08:02:29.796Z,948.89
2018-03-26T08:03:29.783Z,948.9
2018-03-26T08:04:29.768Z,948.89
2018-03-26T08:05:29.756Z,948.94
2018-03-26T08:06:29.741Z,948.91
2018-03-26T08:07:29.728Z,948.9
2018-03-26T08:08:29.712Z,948.94
2018-03-26T08:09:29.699Z,948.97
2018-03-26T08:10:29.691Z,948.97
2018-03-26T08:11:29.673Z,948.95
2018-03-26T08:12:29.660Z,948.97
2018-03-26T08:13:29.646Z,948.95
2018-03-26T08:14:29.635Z,949.02
2018-03-26T08:15:29.621Z,949.02
2018-03-26T08:16:29.604Z,949.04
2018-03-26T08:17:29.591Z,948.97
2018-03-26T08:18:29.579Z,949
2018-03-26T08:19:29.564Z,949.01
2018-03-26T08:20:29.552Z,949
2018-03-26T08:21:29.540Z,949.03
2018-03-26T08:22:29.527Z,949.04
2018-03-26T08:23:29.513Z,949.06
2018-03-26T08:24:29.498Z,949.06
2018-03-26T08:25:29.488Z,949.04
2018-03-26T08:26:29.475Z,949.01
2018-03-26T08:27:29.461Z,949.05
2018-03-26T08:28:29.447Z,949.03
2018-03-26T08:29:29.434Z,949.07
2018-03-26T08:30:29.421Z,949.07
2018-03-26T08:31:29.408Z,949.05
2018-03-26T08:32:29.394Z,949.09
2018-03-26T08:33:29.382Z,949.03
2018-03-26T08:34:29.368Z,949
2018-03-26T08:35:29.358Z,949.04
2018-03-26T08:36:29.405Z,949.02
2018-03-26T08:37:29.332Z,949.03
2018-03-26T08:38:29.320Z,949.06
2018-03-26T08:39:29.307Z,949.04
2018-03-26T08:40:29.294Z,949.03
2018-03-26T08:41:29.281Z,949.09
2018-03-26T08:42:29.344Z,949.04
2018-03-26T08:43:29.256Z,949.07
2018-03-26T08:44:29.245Z,949.09
2018-03-26T08:45:29.229Z,949.07
2018-03-26T08:46:29.219Z,949.1
2018-03-26T08:47:29.206Z,949.11
2018-03-26T08:48:29.194Z,949.13
2018-03-26T08:49:29.181Z,949.13
2018-03-26T08:50:29.220Z,949.13
2018-03-26T08:51:29.157Z,949.13
2018-03-26T08:52:29.143Z,949.12
2018-03-26T08:53:29.365Z,949.11
2018-03-26T08:54:29.116Z,949.12
2018-03-26T08:55:29.106Z,949.1
2018-03-26T08:56:29.091Z,949.15
2018-03-26T08:57:29.080Z,949.1
2018-03-26T08:58:29.069Z,949.12
2018-03-26T08:59:29.057Z,949.15
2018-03-26T09:00:29.043Z,949.16
2018-03-26T09:01:29.032Z,949.17
2018-03-26T09:02:29.019Z,949.13
2018-03-26T09:03:29.005Z,949.18
2018-03-26T09:04:28.994Z,949.16
2018-03-26T09:05:28.981Z,949.18
2018-03-26T09:06:28.970Z,949.18
2018-03-26T09:07:28.959Z,949.13
2018-03-26T09:08:28.947Z,949.13
2018-03-26T09:09:28.932Z,949.16
2018-03-26T09:10:28.919Z,949.19
2018-03-26T09:11:28.908Z,949.16
2018-03-26T09:12:28.896Z,949.19
2018-03-26T09:13:28.884Z,949.17
2018-03-26T09:14:28.872Z,949.18
2018-03-26T09:15:28.859Z,949.14
2018-03-26T09:16:28.845Z,949.16
2018-03-26T09:17:28.877Z,949.2
2018-03-26T09:18:28.822Z,949.19
2018-03-26T09:19:28.810Z,949.22
2018-03-26T09:20:28.798Z,949.18
2018-03-26T09:21:28.787Z,949.22
2018-03-26T09:22:28.772Z,949.22
2018-03-26T09:23:28.760Z,949.22
2018-03-26T09:24:28.748Z,949.19
2018-03-26T09:25:28.736Z,949.22
2018-03-26T09:26:28.724Z,949.24
2018-03-26T09:27:28.712Z,949.22
2018-03-26T09:28:28.700Z,949.25
2018-03-26T09:29:28.688Z,949.27
2018-03-26T09:30:28.676Z,949.29
2018-03-26T09:31:28.662Z,949.23
2018-03-26T09:32:28.651Z,949.25
2018-03-26T09:33:28.640Z,949.23
2018-03-26T09:34:28.625Z,949.28
2018-03-26T09:35:28.613Z,949.25
2018-03-26T09:36:28.603Z,949.24
2018-03-26T09:37:28.592Z,949.24
2018-03-26T09:38:28.580Z,949.25
2018-03-26T09:39:28.568Z,949.18
2018-03-26T09:40:28.609Z,949.25
2018-03-26T09:41:28.546Z,949.25
2018-03-26T09:42:28.534Z,949.23
2018-03-26T09:43:28.521Z,949.23
2018-03-26T09:44:28.507Z,949.23
2018-03-26T09:45:28.496Z,949.27
2018-03-26T09:46:28.486Z,949.28
2018-03-26T09:47:28.474Z,949.3
2018-03-26T09:48:28.462Z,949.34
2018-03-26T09:49:28.452Z,949.36
2018-03-26T09:50:28.441Z,949.34
2018-03-26T09:51:28.428Z,949.38
2018-03-26T09:52:28.418Z,949.38
2018-03-26T09:53:28.442Z,949.35
2018-03-26T09:54:28.394Z,949.39
2018-03-26T09:55:28.381Z,949.4
2018-03-26T09:56:28.375Z,949.43
2018-03-26T09:57:28.361Z,949.46
2018-03-26T09:58:28.348Z,949.43
2018-03-26T09:59:28.338Z,949.47
2018-03-26T10:00:28.326Z,949.48
2018-03-26T10:01:28.315Z,949.46
2018-03-26T10:02:28.304Z,949.51
2018-03-26T10:03:28.293Z,949.51
2018-03-26T10:04:28.282Z,949.52
2018-03-26T10:05:28.269Z,949.53
2018-03-26T10:06:28.260Z,949.52
2018-03-26T10:07:28.248Z,949.55
2018-03-26T10:08:28.236Z,949.54
2018-03-26T10:09:28.225Z,949.54
2018-03-26T10:10:28.213Z,949.53
2018-03-26T10:11:28.204Z,949.53
2018-03-26T10:12:28.190Z,949.57
2018-03-26T10:13:28.180Z,949.57
2018-03-26T10:14:28.170Z,949.58
2018-03-26T10:15:28.157Z,949.55
2018-03-26T10:16:28.145Z,949.55
2018-03-26T10:17:28.133Z,949.57
2018-03-26T10:18:28.122Z,949.56
2018-03-26T10:19:28.111Z,949.56
2018-03-26T10:20:28.108Z,949.55
2018-03-26T10:21:28.087Z,949.56
2018-03-26T10:22:28.078Z,949.59
2018-03-26T10:23:28.072Z,949.56
2018-03-26T10:24:28.053Z,949.54
2018-03-26T10:25:28.043Z,949.58
2018-03-26T10:26:28.029Z,949.59
2018-03-26T10:27:28.019Z,949.57
2018-03-26T10:28:28.007Z,949.55
2018-03-26T10:29:27.998Z,949.57
2018-03-26T10:30:27.983Z,949.56
2018-03-26T10:31:27.972Z,949.55
2018-03-26T10:32:27.961Z,949.58
2018-03-26T10:33:27.950Z,949.56
2018-03-26T10:34:27.936Z,949.54
2018-03-26T10:35:27.926Z,949.57
2018-03-26T10:36:27.914Z,949.61
2018-03-26T10:37:27.903Z,949.57
2018-03-26T10:38:27.902Z,949.63
2018-03-26T10:39:27.882Z,949.59
2018-03-26T10:40:27.866Z,949.62
2018-03-26T10:41:27.855Z,949.67
2018-03-26T10:42:27.842Z,949.61
2018-03-26T10:43:27.830Z,949.62
2018-03-26T10:44:27.821Z,949.61
2018-03-26T10:45:27.808Z,949.64
2018-03-26T10:46:27.796Z,949.64
2018-03-26T10:47:27.786Z,949.65
2018-03-26T10:48:27.772Z,949.64
2018-03-26T10:49:27.780Z,949.67
2018-03-26T10:50:27.750Z,949.67
2018-03-26T10:51:27.735Z,949.67
2018-03-26T10:52:27.723Z,949.63
2018-03-26T10:53:27.712Z,949.65
2018-03-26T10:54:27.700Z,949.66
2018-03-26T10:55:27.688Z,949.66
2018-03-26T10:56:27.676Z,949.68
2018-03-26T10:57:27.663Z,949.68
2018-03-26T10:58:27.651Z,949.68
2018-03-26T10:59:27.637Z,949.65
2018-03-26T11:00:27.640Z,949.69
2018-03-26T11:01:27.613Z,949.68
2018-03-26T11:02:27.601Z,949.7
2018-03-26T11:03:27.590Z,949.67
2018-03-26T11:04:27.579Z,949.69
2018-03-26T11:05:27.565Z,949.61
2018-03-26T11:06:27.552Z,949.68
2018-03-26T11:07:27.539Z,949.65
2018-03-26T11:08:27.527Z,949.76
2018-03-26T11:09:27.514Z,949.7
2018-03-26T11:10:27.501Z,949.74
2018-03-26T11:11:27.490Z,949.76
2018-03-26T11:12:27.479Z,949.75
2018-03-26T11:13:27.466Z,949.77
2018-03-26T11:14:27.451Z,949.77
2018-03-26T11:15:27.438Z,949.78
2018-03-26T11:16:27.430Z,949.78
2018-03-26T11:17:27.414Z,949.82
2018-03-26T11:18:27.401Z,949.81
2018-03-26T11:19:27.391Z,949.79
2018-03-26T11:20:27.374Z,949.8
2018-03-26T11:21:27.362Z,949.81
2018-03-26T11:22:27.354Z,949.81
2018-03-26T11:23:27.337Z,949.83
2018-03-26T11:24:27.324Z,949.85
2018-03-26T11:25:27.310Z,949.81
2018-03-26T11:26:27.299Z,949.85
2018-03-26T11:27:27.286Z,949.82
2018-03-26T11:28:27.273Z,949.87
2018-03-26T11:29:27.263Z,949.81
2018-03-26T11:30:27.246Z,949.84
2018-03-26T11:31:27.240Z,949.82
2018-03-26T11:32:27.223Z,949.82
2018-03-26T11:33:27.210Z,949.88
2018-03-26T11:34:27.196Z,949.88
2018-03-26T11:35:27.183Z,949.88
2018-03-26T11:36:27.215Z,949.89
2018-03-26T11:37:27.157Z,949.87
2018-03-26T11:38:27.145Z,949.88
2018-03-26T11:39:27.133Z,949.89
2018-03-26T11:40:27.119Z,949.91
2018-03-26T11:41:27.107Z,949.9
2018-03-26T11:42:27.095Z,949.94
2018-03-26T11:43:27.082Z,949.94
2018-03-26T11:44:27.068Z,949.92
2018-03-26T11:45:27.055Z,949.91
2018-03-26T11:46:27.046Z,949.93
2018-03-26T11:47:27.031Z,949.95
2018-03-26T11:48:27.018Z,949.95
2018-03-26T11:49:27.005Z,949.93
2018-03-26T11:50:26.994Z,949.98
2018-03-26T11:51:26.981Z,949.95
2018-03-26T11:52:26.966Z,949.95
2018-03-26T11:53:26.953Z,949.97
2018-03-26T11:54:26.940Z,950
2018-03-26T11:55:26.927Z,949.95
2018-03-26T11:56:26.913Z,949.99
2018-03-26T11:57:26.903Z,949.97
2018-03-26T11:58:26.891Z,950.01
2018-03-26T11:59:26.880Z,950.02
2018-03-26T12:00:26.864Z,950
2018-03-26T12:01:26.850Z,949.94
2018-03-26T12:02:26.836Z,950.03
2018-03-26T12:03:26.824Z,949.98
2018-03-26T12:04:26.812Z,949.99
2018-03-26T12:05:26.799Z,950.01
2018-03-26T12:06:26.788Z,949.97
2018-03-26T12:07:26.773Z,949.96
2018-03-26T12:08:26.760Z,950.01
2018-03-26T12:09:26.747Z,949.99
2018-03-26T12:10:26.738Z,950.02
2018-03-26T12:11:26.723Z,950.03
2018-03-26T12:12:26.710Z,950.03
2018-03-26T12:13:26.694Z,950
2018-03-26T12:14:26.684Z,950.02
2018-03-26T12:15:26.672Z,950.05
2018-03-26T12:16:26.659Z,950.05
2018-03-26T12:17:26.646Z,950.11
2018-03-26T12:18:26.633Z,950.08
2018-03-26T12:19:26.618Z,950.11
2018-03-26T12:20:26.605Z,950.08
2018-03-26T12:21:26.595Z,950.13
2018-03-26T12:22:26.615Z,950.11
2018-03-26T12:23:26.570Z,950.09
2018-03-26T12:24:26.555Z,950.11
2018-03-26T12:25:26.543Z,950.15
2018-03-26T12:26:26.531Z,950.14
2018-03-26T12:27:26.522Z,950.12
2018-03-26T12:28:26.506Z,950.12
2018-03-26T12:29:26.492Z,950.13
2018-03-26T12:30:26.479Z,950.11
2018-03-26T12:31:26.465Z,950.08